Time;durP1;ratioP1;P1;durP2;ratioP2;P2;SDS_P1;SDS_P2;PMS_P1;PMS_P2;Temp;Humidity;BMP_temperature;BMP_pressure;BME280_temperature;BME280_humidity;BME280_pressure;Samples;Min_cycle;Max_cycle;Signal;HPM_P1;HPM_P2
2022/06/29 00:00:18;;;;;;;2.38;1.15;;;;;;;16.05;100.00;101854.03;5038090;28;20670;-72
2022/06/29 00:02:45;;;;;;;5.93;2.15;;;;;;;16.04;99.82;101852.34;5034320;28;20029;-72
2022/06/29 00:05:12;;;;;;;4.35;1.85;;;;;;;15.86;100.00;101828.50;5041982;28;20485;-74
2022/06/29 00:07:38;;;;;;;2.60;1.85;;;;;;;15.89;100.00;101852.13;5042881;28;20030;-73
2022/06/29 00:10:05;;;;;;;4.43;2.25;;;;;;;15.83;100.00;101840.31;5039573;28;20029;-73
2022/06/29 00:12:31;;;;;;;3.67;1.83;;;;;;;15.90;100.00;101853.81;5028894;28;20029;-73
2022/06/29 00:14:57;;;;;;;2.05;1.45;;;;;;;15.87;100.00;101846.13;5041424;28;20155;-73
2022/06/29 00:17:23;;;;;;;2.85;1.48;;;;;;;15.83;100.00;101844.81;5037889;28;20040;-73
2022/06/29 00:19:49;;;;;;;3.33;1.70;;;;;;;15.82;100.00;101845.78;5037949;28;20021;-73
2022/06/29 00:22:15;;;;;;;2.30;2.10;;;;;;;15.71;100.00;101824.75;5037656;28;20044;-73
2022/06/29 00:24:40;;;;;;;6.15;2.28;;;;;;;15.76;100.00;101836.59;5039776;28;20055;-73
2022/06/29 00:27:06;;;;;;;2.28;1.33;;;;;;;15.72;100.00;101816.66;5042390;28;20495;-73
2022/06/29 00:29:31;;;;;;;1.50;1.00;;;;;;;15.86;99.63;101825.84;5022999;28;20040;-73
2022/06/29 00:31:57;;;;;;;2.83;1.25;;;;;;;15.86;99.62;101825.84;5040442;28;20037;-73
2022/06/29 00:34:22;;;;;;;1.70;1.35;;;;;;;15.86;99.75;101831.16;5041628;28;20022;-73
2022/06/29 00:36:48;;;;;;;3.97;1.98;;;;;;;15.77;100.00;101818.81;5043100;28;20041;-73
2022/06/29 00:39:14;;;;;;;2.80;1.58;;;;;;;15.68;100.00;101811.75;5038597;28;20506;-73
2022/06/29 00:41:41;;;;;;;3.63;1.55;;;;;;;15.67;99.94;101816.25;5039272;28;20037;-74
2022/06/29 00:44:10;;;;;;;1.67;1.35;;;;;;;15.68;98.76;101803.78;5038117;28;20081;-74
2022/06/29 00:46:47;;;;;;;1.42;1.10;;;;;;;15.64;99.41;101798.78;5022762;28;20021;-73
2022/06/29 00:49:14;;;;;;;3.42;1.75;;;;;;;15.72;99.35;101799.81;5040589;28;20048;-73
2022/06/29 00:51:40;;;;;;;2.58;1.48;;;;;;;15.72;98.08;101805.16;5035922;28;20107;-73
2022/06/29 00:54:08;;;;;;;1.60;1.30;;;;;;;15.72;98.96;101802.50;5041527;28;20127;-74
2022/06/29 00:56:34;;;;;;;2.30;2.05;;;;;;;15.66;99.75;101795.09;5040548;28;20025;-74
2022/06/29 00:59:03;;;;;;;1.95;1.55;;;;;;;15.66;99.41;101789.78;5037658;28;20043;-74
2022/06/29 01:01:30;;;;;;;2.47;1.75;;;;;;;15.66;97.66;101789.78;5037847;28;20034;-74
2022/06/29 01:03:55;;;;;;;1.42;1.10;;;;;;;15.68;97.45;101795.78;5041392;28;20025;-75
2022/06/29 01:06:21;;;;;;;4.35;1.70;;;;;;;15.53;97.88;101776.97;5041008;28;20477;-74
2022/06/29 01:08:47;;;;;;;4.03;1.85;;;;;;;15.60;99.58;101786.78;5039898;28;20028;-74
2022/06/29 01:11:12;;;;;;;3.67;2.65;;;;;;;15.54;100.00;101781.28;5028461;28;20048;-75
2022/06/29 01:13:44;;;;;;;8.35;2.72;;;;;;;15.43;100.00;101774.41;5039540;28;20041;-77
2022/06/29 01:16:10;;;;;;;2.42;1.75;;;;;;;15.44;100.00;101784.06;5037892;28;20112;-74
2022/06/29 01:18:36;;;;;;;3.00;2.33;;;;;;;15.36;100.00;101781.34;5036325;28;20128;-74
2022/06/29 01:21:08;;;;;;;3.33;1.90;;;;;;;15.36;100.00;101773.38;5043798;28;20029;-74
2022/06/29 01:23:34;;;;;;;5.93;1.92;;;;;;;15.18;100.00;101747.69;5036757;28;20492;-74
2022/06/29 01:26:06;;;;;;;2.90;2.17;;;;;;;15.32;100.00;101772.84;5038942;28;20025;-74
2022/06/29 01:28:32;;;;;;;3.00;1.95;;;;;;;15.29;100.00;101772.34;5038593;28;20073;-74
2022/06/29 01:30:58;;;;;;;2.85;2.47;;;;;;;15.26;100.00;101775.31;5037105;28;20099;-75
2022/06/29 01:33:24;;;;;;;2.67;1.50;;;;;;;15.27;100.00;101766.34;5042215;28;20037;-74
2022/06/29 01:35:50;;;;;;;5.00;2.47;;;;;;;15.27;100.00;101761.03;5038888;28;20397;-74
2022/06/29 01:38:16;;;;;;;5.45;2.88;;;;;;;15.23;100.00;101764.00;5035126;28;20029;-74
2022/06/29 01:40:41;;;;;;;5.28;2.90;;;;;;;15.11;100.00;101744.00;5037866;28;20111;-74
2022/06/29 01:43:06;;;;;;;3.50;2.33;;;;;;;15.07;100.00;101745.31;5023961;28;20039;-74
2022/06/29 01:45:32;;;;;;;2.92;2.13;;;;;;;15.19;100.00;101767.97;5034556;28;20021;-74
2022/06/29 01:47:57;;;;;;;3.47;2.33;;;;;;;15.15;100.00;101771.91;5034655;28;20041;-74
2022/06/29 01:50:23;;;;;;;3.92;2.58;;;;;;;15.18;100.00;101766.31;5035522;28;20108;-73
2022/06/29 01:52:48;;;;;;;3.60;2.17;;;;;;;15.20;100.00;101767.00;5035093;28;20400;-73
2022/06/29 01:55:13;;;;;;;2.60;2.20;;;;;;;15.12;100.00;101750.16;5035431;28;20041;-74
2022/06/29 01:57:39;;;;;;;5.43;2.25;;;;;;;15.20;100.00;101759.00;5021089;28;20041;-74
2022/06/29 02:00:05;;;;;;;1.80;1.50;;;;;;;15.10;100.00;101741.50;5035922;28;20060;-74
2022/06/29 02:02:30;;;;;;;3.67;2.33;;;;;;;15.17;100.00;101756.66;5006538;28;20095;-74
2022/06/29 02:04:56;;;;;;;4.65;2.17;;;;;;;15.06;100.00;101740.16;5024067;28;20030;-74
2022/06/29 02:07:21;;;;;;;2.20;1.90;;;;;;;15.07;100.00;101747.97;5024020;28;20033;-75
2022/06/29 02:09:46;;;;;;;5.53;1.90;;;;;;;15.03;100.00;101738.63;5022916;28;20039;-74
2022/06/29 02:12:12;;;;;;;2.83;1.65;;;;;;;15.03;100.00;101741.31;5021376;28;20108;-74
2022/06/29 02:14:37;;;;;;;3.60;2.55;;;;;;;15.04;100.00;101740.28;5039874;28;20441;-75
2022/06/29 02:17:03;;;;;;;2.78;1.92;;;;;;;15.14;100.00;101754.31;5035027;28;20033;-75
2022/06/29 02:19:28;;;;;;;3.25;2.17;;;;;;;15.11;100.00;101743.16;5035836;28;20377;-74
2022/06/29 02:21:53;;;;;;;2.55;2.35;;;;;;;15.16;100.00;101744.34;5022766;28;20451;-76
2022/06/29 02:24:19;;;;;;;3.00;2.03;;;;;;;15.18;100.00;101749.53;5036179;28;20056;-73
2022/06/29 02:26:45;;;;;;;3.17;2.05;;;;;;;15.18;100.00;101742.38;5037058;28;20025;-76
2022/06/29 02:29:10;;;;;;;3.15;2.17;;;;;;;15.18;100.00;101739.72;5036914;28;20120;-75
2022/06/29 02:37:03;;;;;;;4.60;2.53;;;;;;;15.25;100.00;101744.41;5037744;28;20106;-74
2022/06/29 02:39:29;;;;;;;10.95;2.97;;;;;;;15.25;100.00;101731.94;5035525;28;20029;-74
2022/06/29 02:41:54;;;;;;;6.40;2.95;;;;;;;15.21;100.00;101739.38;5038654;28;20060;-74
2022/06/29 02:44:19;;;;;;;4.10;2.35;;;;;;;15.27;100.00;101743.25;5030501;28;20025;-74
2022/06/29 02:46:45;;;;;;;4.20;2.97;;;;;;;15.29;100.00;101730.63;5035971;28;20024;-74
2022/06/29 02:49:10;;;;;;;3.60;2.85;;;;;;;15.21;100.00;101717.28;5024555;28;20049;-76
2022/06/29 02:51:36;;;;;;;5.43;3.40;;;;;;;15.29;100.00;101730.63;5035860;28;20546;-74
2022/06/29 02:54:01;;;;;;;6.50;3.85;;;;;;;15.25;99.54;101723.97;5036659;28;20025;-74
2022/06/29 02:56:26;;;;;;;4.50;3.78;;;;;;;15.20;99.64;101724.44;5033342;28;20257;-76
2022/06/29 02:58:52;;;;;;;4.95;3.75;;;;;;;15.27;100.00;101727.28;5020835;28;20041;-74
2022/06/29 03:01:17;;;;;;;6.30;4.00;;;;;;;15.20;99.63;101716.47;5038326;28;20037;-74
2022/06/29 03:03:42;;;;;;;5.65;3.08;;;;;;;15.28;99.87;101722.81;5038294;28;20045;-75
2022/06/29 03:06:08;;;;;;;4.85;3.85;;;;;;;15.32;99.50;101721.50;5035226;28;20029;-73
2022/06/29 03:08:33;;;;;;;4.78;3.38;;;;;;;15.36;99.36;101728.16;5038105;28;20040;-75
2022/06/29 03:10:58;;;;;;;8.15;3.38;;;;;;;15.31;99.04;101714.50;5037412;28;20124;-75
2022/06/29 03:13:24;;;;;;;6.70;3.42;;;;;;;15.41;98.79;101723.19;5036415;28;20036;-73
2022/06/29 03:15:49;;;;;;;6.28;3.08;;;;;;;15.41;98.47;101710.72;5035455;28;20037;-75
2022/06/29 03:18:14;;;;;;;7.25;4.43;;;;;;;15.40;97.91;101708.25;5039068;28;20020;-74
2022/06/29 03:20:40;;;;;;;4.60;3.55;;;;;;;15.39;97.63;101704.72;5037899;28;20117;-74
2022/06/29 03:23:05;;;;;;;4.15;2.88;;;;;;;15.40;97.60;101700.25;5037027;28;20029;-74
2022/06/29 03:25:31;;;;;;;3.78;3.13;;;;;;;15.39;97.64;101703.88;5037591;28;20025;-74
2022/06/29 03:27:56;;;;;;;3.58;2.90;;;;;;;15.30;97.54;101680.94;5036887;28;20083;-74
2022/06/29 03:30:22;;;;;;;4.22;3.42;;;;;;;15.41;97.21;101699.25;5037151;28;20036;-74
2022/06/29 03:32:47;;;;;;;9.80;4.03;;;;;;;15.38;97.01;101694.25;5035498;28;20037;-74
2022/06/29 03:35:13;;;;;;;3.97;3.10;;;;;;;15.28;97.46;101674.94;5031571;28;20029;-74
2022/06/29 03:37:38;;;;;;;5.63;3.90;;;;;;;15.36;97.28;101689.09;5037122;28;20108;-74
2022/06/29 03:40:04;;;;;;;4.75;3.90;;;;;;;15.30;97.72;101687.06;5033987;28;20072;-74
2022/06/29 03:42:29;;;;;;;4.25;3.53;;;;;;;15.24;97.57;101677.06;5026924;28;20555;-74
2022/06/29 03:44:55;;;;;;;4.88;3.00;;;;;;;15.29;97.84;101684.59;5007130;28;20026;-74
2022/06/29 03:47:22;;;;;;;3.78;3.20;;;;;;;15.24;97.82;101682.38;5034179;28;20608;-74
2022/06/29 03:49:48;;;;;;;7.95;2.72;;;;;;;15.20;97.90;101671.25;5037073;28;20152;-74
2022/06/29 03:52:13;;;;;;;5.47;2.70;;;;;;;15.32;97.76;101686.91;5007756;28;20116;-74
2022/06/29 03:54:38;;;;;;;4.30;3.47;;;;;;;15.19;97.64;101650.97;5037220;28;20025;-74
2022/06/29 03:57:04;;;;;;;3.80;3.08;;;;;;;15.42;96.40;101677.00;5018453;28;20029;-74
2022/06/29 03:59:30;;;;;;;8.15;3.60;;;;;;;15.43;96.82;101674.16;5036340;28;20111;-74
2022/06/29 04:01:55;;;;;;;4.70;3.25;;;;;;;15.42;97.22;101677.00;5033783;28;20617;-74
2022/06/29 04:04:20;;;;;;;5.70;3.88;;;;;;;15.43;97.25;101668.00;5037409;28;20516;-74
2022/06/29 04:06:46;;;;;;;3.25;2.95;;;;;;;15.34;96.77;101663.66;5018152;28;20026;-74
2022/06/29 04:09:11;;;;;;;3.22;2.67;;;;;;;15.43;96.66;101674.16;5032585;28;20021;-75
2022/06/29 04:11:48;;;;;;;4.97;3.42;;;;;;;15.49;96.30;101666.53;5032597;28;20488;-74
2022/06/29 04:14:17;;;;;;;3.75;2.60;;;;;;;15.57;95.95;101664.72;5036091;28;20492;-75
2022/06/29 04:16:42;;;;;;;7.43;4.55;;;;;;;15.60;96.19;101666.22;5035167;28;20100;-74
2022/06/29 04:19:08;;;;;;;4.15;3.10;;;;;;;15.63;96.38;101658.75;5035348;28;20039;-74
2022/06/29 04:21:33;;;;;;;7.18;3.35;;;;;;;15.68;96.10;101662.72;5021436;28;20540;-74
2022/06/29 04:23:59;;;;;;;3.25;2.95;;;;;;;15.58;95.52;101645.09;5035954;28;20065;-74
2022/06/29 04:26:24;;;;;;;4.22;2.67;;;;;;;15.67;94.75;101659.25;5034690;28;20079;-74
2022/06/29 04:28:50;;;;;;;7.65;3.65;;;;;;;15.68;94.61;101649.41;5036518;28;20026;-74
2022/06/29 04:31:15;;;;;;;7.13;4.05;;;;;;;15.79;94.30;101665.13;5037669;28;20112;-76
2022/06/29 04:33:41;;;;;;;3.42;3.08;;;;;;;15.79;93.27;101668.63;5016750;28;20103;-74
2022/06/29 04:36:07;;;;;;;4.85;3.10;;;;;;;15.83;93.41;101653.16;5032162;28;20044;-74
2022/06/29 04:38:32;;;;;;;3.90;3.50;;;;;;;15.77;92.35;101638.69;5031480;28;20034;-75
2022/06/29 04:40:59;;;;;;;5.43;3.15;;;;;;;15.91;92.81;101663.78;5040630;28;20448;-75
2022/06/29 04:43:27;;;;;;;3.97;2.70;;;;;;;15.90;92.82;101658.66;5029219;28;20029;-75
2022/06/29 04:48:36;;;;;;;3.33;3.03;;;;;;;15.93;92.85;101653.00;5035678;28;20128;-74
2022/06/29 04:51:02;;;;;;;3.58;2.97;;;;;;;15.98;92.64;101651.50;5032056;28;20152;-74
2022/06/29 04:53:27;;;;;;;4.18;2.95;;;;;;;16.11;91.81;101650.16;5017184;28;20061;-75
2022/06/29 04:55:52;;;;;;;4.40;3.35;;;;;;;16.12;91.06;101639.34;5031158;28;20476;-76
2022/06/29 04:58:18;;;;;;;3.65;2.90;;;;;;;16.40;92.01;101639.81;5033575;28;20034;-75
2022/06/29 05:00:43;;;;;;;4.88;2.95;;;;;;;16.60;90.97;101650.94;5033353;28;20041;-75
2022/06/29 05:03:09;;;;;;;3.35;2.88;;;;;;;16.69;90.77;101654.41;5039248;28;20028;-75
2022/06/29 05:05:34;;;;;;;4.43;2.92;;;;;;;16.76;90.18;101643.91;5033950;28;20041;-75
2022/06/29 05:08:00;;;;;;;3.58;2.90;;;;;;;16.91;89.30;101652.88;5035535;28;20147;-75
2022/06/29 05:10:25;;;;;;;9.35;3.03;;;;;;;16.91;87.69;101649.38;5036843;28;20025;-75
2022/06/29 05:12:50;;;;;;;4.22;2.97;;;;;;;16.91;87.54;101647.53;5031463;28;20051;-74
2022/06/29 05:15:16;;;;;;;5.35;2.83;;;;;;;17.01;88.26;101652.69;5032229;28;20029;-74
2022/06/29 05:17:41;;;;;;;4.35;2.70;;;;;;;16.98;87.17;101639.69;5027536;28;20037;-75
2022/06/29 05:20:08;;;;;;;4.22;2.72;;;;;;;17.11;87.17;101644.47;5035793;28;20491;-77
2022/06/29 05:22:34;;;;;;;4.90;2.67;;;;;;;17.15;85.81;101646.63;5029293;28;20087;-71
2022/06/29 05:25:00;;;;;;;4.05;2.85;;;;;;;17.07;85.74;101627.97;5028720;28;20073;-73
2022/06/29 05:27:26;;;;;;;2.90;2.55;;;;;;;17.18;84.76;101643.63;5028394;28;20052;-73
2022/06/29 05:29:51;;;;;;;2.47;1.90;;;;;;;17.25;85.09;101641.09;5028365;28;20048;-74
2022/06/29 05:32:16;;;;;;;5.65;2.95;;;;;;;17.22;85.45;101641.41;5029145;28;20029;-73
2022/06/29 05:34:42;;;;;;;3.92;2.40;;;;;;;17.27;85.01;101637.22;5026553;28;20033;-74
2022/06/29 05:37:07;;;;;;;4.53;2.80;;;;;;;17.37;85.25;101639.66;5030680;28;20029;-74
2022/06/29 05:39:33;;;;;;;4.60;3.00;;;;;;;17.40;85.36;101635.84;5026175;28;20124;-74
2022/06/29 05:41:58;;;;;;;3.55;2.35;;;;;;;17.48;84.43;101635.75;5036224;28;20025;-74
2022/06/29 05:44:23;;;;;;;4.85;2.58;;;;;;;17.60;83.84;101631.69;5031516;28;20073;-74
2022/06/29 05:46:49;;;;;;;4.25;2.67;;;;;;;17.70;83.30;101626.09;5028414;28;20041;-73
2022/06/29 05:49:14;;;;;;;4.32;2.65;;;;;;;17.76;83.29;101627.25;5028017;28;20352;-74
2022/06/29 05:51:40;;;;;;;2.60;2.40;;;;;;;17.93;82.59;101634.16;5030692;28;20072;-74
2022/06/29 05:54:05;;;;;;;2.97;2.45;;;;;;;18.19;82.47;101635.59;5030750;28;20029;-74
2022/06/29 05:56:30;;;;;;;4.95;2.67;;;;;;;18.12;81.09;101629.31;5028500;28;20120;-74
2022/06/29 05:58:56;;;;;;;3.05;2.35;;;;;;;18.16;82.45;101619.91;5027332;28;20037;-74
2022/06/29 06:01:21;;;;;;;4.28;2.10;;;;;;;18.42;81.88;101633.72;5030083;28;20037;-74
2022/06/29 06:03:47;;;;;;;4.68;2.30;;;;;;;18.85;80.09;101628.56;5039208;28;20236;-73
2022/06/29 06:06:12;;;;;;;3.95;2.00;;;;;;;18.77;79.64;101634.00;5035024;28;20393;-73
2022/06/29 06:08:38;;;;;;;3.08;1.90;;;;;;;19.05;80.22;101636.03;5041937;28;20115;-77
2022/06/29 06:11:03;;;;;;;3.35;2.28;;;;;;;19.07;78.83;101624.13;5038185;28;20360;-74
2022/06/29 06:13:28;;;;;;;2.95;2.25;;;;;;;18.75;77.61;101624.50;5039754;28;20029;-74
2022/06/29 06:15:54;;;;;;;2.45;1.80;;;;;;;18.69;77.91;101620.72;5035358;28;20479;-74
2022/06/29 06:18:19;;;;;;;3.63;1.83;;;;;;;18.86;77.36;101632.09;5034657;28;20451;-74
2022/06/29 06:20:44;;;;;;;3.88;1.90;;;;;;;18.97;76.06;101625.44;5036395;28;20112;-74
2022/06/29 06:23:10;;;;;;;4.15;2.05;;;;;;;19.14;76.15;101624.22;5031378;28;20497;-74
2022/06/29 06:25:35;;;;;;;4.50;2.38;;;;;;;19.38;74.71;101631.09;5035384;28;20488;-73
2022/06/29 06:28:00;;;;;;;2.88;2.03;;;;;;;19.51;74.17;101625.03;5033636;28;20033;-74
2022/06/29 06:30:27;;;;;;;2.40;1.63;;;;;;;19.75;73.61;101606.94;5037127;28;20036;-74
2022/06/29 06:32:52;;;;;;;3.20;1.83;;;;;;;19.86;71.42;101617.13;5030862;28;20248;-74
2022/06/29 06:35:21;;;;;;;3.95;1.98;;;;;;;20.06;71.85;101614.66;5031731;28;20076;-74
2022/06/29 06:37:47;;;;;;;2.15;1.33;;;;;;;20.69;71.27;101614.69;5035418;28;20087;-74
2022/06/29 06:42:59;;;;;;;4.10;1.83;;;;;;;20.96;69.39;101613.75;5035461;28;20036;-74
2022/06/29 06:45:25;;;;;;;2.90;2.35;;;;;;;21.36;68.73;101605.88;5038249;28;20339;-74
2022/06/29 06:47:52;;;;;;;2.05;1.58;;;;;;;21.49;66.61;101609.63;5034067;28;20236;-74
2022/06/29 06:50:17;;;;;;;2.80;1.27;;;;;;;21.97;65.88;101614.81;5033227;28;20021;-73
2022/06/29 06:52:42;;;;;;;3.33;1.33;;;;;;;22.38;64.83;101619.16;5036012;28;20021;-74
2022/06/29 06:55:08;;;;;;;3.88;1.50;;;;;;;22.43;63.54;101614.00;5039323;28;20025;-74
2022/06/29 06:57:34;;;;;;;6.68;1.38;;;;;;;22.68;63.84;101610.63;5040295;28;20135;-74
2022/06/29 06:59:59;;;;;;;3.53;1.27;;;;;;;22.83;62.80;101613.06;5036204;28;20040;-74
2022/06/29 07:02:25;;;;;;;1.80;1.40;;;;;;;22.80;62.27;101590.09;5036959;28;20672;-74
2022/06/29 07:04:50;;;;;;;2.35;1.30;;;;;;;22.87;62.42;101609.72;5015893;28;20029;-74
2022/06/29 07:07:15;;;;;;;1.80;1.20;;;;;;;23.24;61.29;101604.63;5036410;28;20041;-74
2022/06/29 07:09:41;;;;;;;2.63;1.13;;;;;;;23.59;60.33;101617.66;5040981;28;20285;-74
2022/06/29 07:12:07;;;;;;;2.75;1.30;;;;;;;23.55;60.42;101616.44;5034778;28;20029;-74
2022/06/29 07:14:32;;;;;;;2.70;1.40;;;;;;;23.56;60.92;101610.84;5033791;28;20417;-74
2022/06/29 07:16:58;;;;;;;2.05;1.08;;;;;;;23.63;60.47;101613.47;5034447;28;20036;-74
2022/06/29 07:19:23;;;;;;;2.88;1.55;;;;;;;23.58;61.04;101610.59;5033966;28;20053;-74
2022/06/29 07:21:49;;;;;;;2.25;1.30;;;;;;;24.32;60.23;101616.22;5034879;28;20095;-74
2022/06/29 07:24:14;;;;;;;2.22;1.27;;;;;;;24.06;60.16;101612.72;5031770;28;20064;-74
2022/06/29 07:26:40;;;;;;;4.72;1.60;;;;;;;23.58;59.64;101602.50;5031408;28;20075;-74
2022/06/29 07:29:06;;;;;;;1.70;1.10;;;;;;;23.70;61.17;101608.88;5032882;28;20080;-74
2022/06/29 07:31:31;;;;;;;2.67;1.10;;;;;;;23.75;60.40;101606.34;5031655;28;20024;-74
2022/06/29 07:33:56;;;;;;;5.47;1.83;;;;;;;23.72;60.63;101592.47;5029219;28;20033;-74
2022/06/29 07:36:22;;;;;;;1.35;1.10;;;;;;;23.93;59.92;101592.13;5016882;28;20091;-74
2022/06/29 07:38:47;;;;;;;1.48;1.17;;;;;;;24.36;58.50;101591.28;5021944;28;20040;-74
2022/06/29 07:41:12;;;;;;;2.95;1.30;;;;;;;24.88;57.43;101596.31;5039866;28;20021;-74
2022/06/29 07:43:38;;;;;;;2.30;1.20;;;;;;;24.78;59.05;101604.13;5036707;28;20033;-73
2022/06/29 07:46:03;;;;;;;2.75;1.50;;;;;;;24.72;56.87;101610.44;5032829;28;20487;-74
2022/06/29 07:48:29;;;;;;;3.05;1.10;;;;;;;25.13;58.58;101595.38;5038143;28;20041;-74
2022/06/29 07:50:54;;;;;;;1.63;0.85;;;;;;;26.02;56.27;101592.78;5038385;28;20447;-74
2022/06/29 07:53:20;;;;;;;1.75;1.10;;;;;;;25.69;56.26;101599.56;5029624;28;20512;-74
2022/06/29 07:55:46;;;;;;;1.38;1.25;;;;;;;25.90;55.57;101584.69;5041541;28;20024;-74
2022/06/29 07:58:15;;;;;;;3.30;1.38;;;;;;;26.08;56.51;101575.63;5038951;28;20496;-74
2022/06/29 08:00:41;;;;;;;2.78;0.93;;;;;;;25.83;54.65;101584.78;5035316;28;20044;-74
2022/06/29 08:03:07;;;;;;;1.40;0.93;;;;;;;26.11;53.46;101590.56;5038026;28;20028;-75
2022/06/29 08:05:36;;;;;;;2.22;0.93;;;;;;;26.13;54.44;101581.19;5036245;28;20055;-74
2022/06/29 08:08:01;;;;;;;3.42;1.25;;;;;;;25.50;54.08;101579.06;5014680;28;20576;-75
2022/06/29 08:10:27;;;;;;;1.75;0.80;;;;;;;26.41;53.03;101590.41;5036931;28;20099;-74
2022/06/29 08:12:53;;;;;;;1.52;0.90;;;;;;;26.56;53.59;101577.25;5037874;28;20024;-74
2022/06/29 08:15:19;;;;;;;2.50;0.90;;;;;;;27.29;52.04;101586.53;5031367;28;20101;-74
2022/06/29 08:17:45;;;;;;;3.90;1.05;;;;;;;26.58;52.00;101572.41;5028905;28;20505;-74
2022/06/29 08:20:11;;;;;;;4.28;1.00;;;;;;;26.88;52.78;101582.22;5032886;28;20493;-76
2022/06/29 08:22:36;;;;;;;1.58;0.80;;;;;;;26.66;51.77;101574.75;5030990;28;20087;-74
2022/06/29 08:25:02;;;;;;;1.45;0.88;;;;;;;26.71;52.22;101565.91;5023841;28;20179;-73
2022/06/29 08:27:29;;;;;;;2.67;0.90;;;;;;;26.93;51.05;101576.88;5042147;28;20044;-73
2022/06/29 08:29:54;;;;;;;1.55;0.90;;;;;;;26.87;52.24;101580.56;5035885;28;20124;-73
2022/06/29 08:32:20;;;;;;;2.80;0.98;;;;;;;27.46;52.79;101574.91;5021094;28;20045;-73
2022/06/29 08:34:46;;;;;;;1.02;0.80;;;;;;;27.48;51.23;101576.28;5043874;28;20029;-74
2022/06/29 08:37:11;;;;;;;2.78;1.20;;;;;;;27.35;51.27;101573.91;5043529;28;20533;-74
2022/06/29 08:39:36;;;;;;;1.33;1.00;;;;;;;27.41;51.06;101575.63;5017666;28;20163;-74
2022/06/29 08:42:06;;;;;;;2.33;1.27;;;;;;;27.39;51.27;101566.09;5044781;28;20370;-74
2022/06/29 08:44:36;;;;;;;1.73;0.85;;;;;;;26.86;53.31;101560.78;5034713;28;20587;-74
2022/06/29 08:47:07;;;;;;;1.35;1.02;;;;;;;27.87;50.69;101560.13;5044321;28;20021;-74
2022/06/29 08:49:34;;;;;;;3.35;1.20;;;;;;;28.14;49.83;101573.00;5034533;28;20056;-74
2022/06/29 08:52:03;;;;;;;2.13;1.42;;;;;;;27.46;50.71;101570.28;5043071;28;20034;-73
2022/06/29 08:54:31;;;;;;;1.40;0.80;;;;;;;27.41;50.53;101567.47;5039049;28;20036;-73
2022/06/29 08:56:58;;;;;;;1.15;0.80;;;;;;;27.78;49.98;101567.00;5044450;28;20483;-73
2022/06/29 08:59:24;;;;;;;2.03;0.85;;;;;;;28.78;50.05;101564.31;5034895;28;20115;-74
2022/06/29 09:01:52;;;;;;;2.35;1.17;;;;;;;28.68;48.88;101567.72;5040823;28;20087;-74
2022/06/29 09:04:18;;;;;;;2.60;1.08;;;;;;;29.23;48.46;101565.06;5044379;28;20033;-74
2022/06/29 09:06:45;;;;;;;2.47;1.40;;;;;;;28.89;49.04;101562.50;5043380;28;20095;-74
2022/06/29 09:09:12;;;;;;;2.10;1.15;;;;;;;29.31;48.96;101556.41;5017907;28;20017;-74
2022/06/29 09:11:42;;;;;;;5.05;1.13;;;;;;;29.30;48.62;101561.03;5033161;28;20025;-73
2022/06/29 09:14:13;;;;;;;1.58;1.13;;;;;;;28.88;47.63;101564.41;5038791;28;20025;-73
2022/06/29 09:16:53;;;;;;;1.20;0.80;;;;;;;29.58;47.63;101566.44;5037313;28;20500;-73
2022/06/29 09:19:21;;;;;;;1.48;1.02;;;;;;;30.46;45.97;101560.47;5043613;28;20033;-74
2022/06/29 09:21:48;;;;;;;1.50;0.93;;;;;;;30.33;44.16;101562.63;5035884;28;20021;-73
2022/06/29 09:24:34;;;;;;;1.15;0.82;;;;;;;30.44;44.65;101557.19;5034648;28;20029;-74
2022/06/29 09:27:03;;;;;;;1.40;0.75;;;;;;;29.45;47.26;101549.47;5029926;28;20116;-73
2022/06/29 09:29:31;;;;;;;1.33;0.90;;;;;;;29.57;47.67;101559.34;5032416;28;20029;-73
2022/06/29 09:32:08;;;;;;;2.22;0.95;;;;;;;30.04;45.96;101554.00;5036704;28;20021;-73
2022/06/29 09:34:35;;;;;;;1.88;0.82;;;;;;;30.96;45.65;101559.00;5044249;28;20037;-74
2022/06/29 09:37:02;;;;;;;3.05;1.20;;;;;;;30.53;45.36;101563.75;5047570;28;20057;-73
2022/06/29 09:39:36;;;;;;;1.95;0.80;;;;;;;30.40;45.58;101545.19;5040848;28;20025;-73
2022/06/29 09:42:10;;;;;;;1.83;0.90;;;;;;;30.18;46.72;101538.00;5039595;28;20013;-73
2022/06/29 09:44:36;;;;;;;1.38;0.82;;;;;;;30.64;45.99;101554.56;5036930;28;20017;-73
2022/06/29 09:47:15;;;;;;;1.00;0.52;;;;;;;30.55;45.05;101553.44;5009932;28;20032;-73
2022/06/29 09:49:40;;;;;;;1.08;0.82;;;;;;;30.18;44.51;101529.00;5030038;28;20075;-73
2022/06/29 09:52:07;;;;;;;3.05;1.00;;;;;;;30.51;44.55;101544.97;5024968;28;20025;-74
2022/06/29 09:54:37;;;;;;;3.30;0.77;;;;;;;30.16;44.75;101545.63;5028641;28;20041;-74
2022/06/29 09:57:04;;;;;;;;;;;;;;;29.54;46.39;101538.94;5026878;28;20120;-73
2022/06/29 10:05:54;;;;;;;1.55;0.93;;;;;;;29.66;46.37;101531.44;5048532;28;20040;-73
2022/06/29 10:08:11;;;;;;;1.38;0.98;;;;;;;29.94;47.16;101527.56;5051147;28;20055;-73
2022/06/29 10:10:37;;;;;;;1.60;0.80;;;;;;;30.42;45.37;101521.25;5048453;28;20040;-73
2022/06/29 10:13:39;;;;;;;3.78;0.80;;;;;;;29.67;45.65;101526.81;5036100;28;20257;-73
2022/06/29 10:16:11;;;;;;;2.15;0.90;;;;;;;30.08;45.24;101527.88;5051059;28;20025;-73
2022/06/29 10:19:09;;;;;;;1.35;0.93;;;;;;;29.54;45.97;101520.72;5051669;28;20290;-73
2022/06/29 10:21:35;;;;;;;1.50;0.90;;;;;;;29.41;46.92;101513.00;5047283;28;20459;-73
2022/06/29 10:24:01;;;;;;;1.40;0.82;;;;;;;29.50;47.29;101516.88;5031432;28;20043;-73
2022/06/29 10:26:36;;;;;;;1.00;0.80;;;;;;;30.56;45.25;101516.94;5048133;28;20212;-73
2022/06/29 10:29:10;;;;;;;1.67;0.70;;;;;;;31.23;45.35;101514.31;5032872;28;20322;-73
2022/06/29 10:31:51;;;;;;;1.60;1.13;;;;;;;30.56;44.82;101506.03;5033338;28;20039;-73
2022/06/29 10:34:31;;;;;;;1.85;1.40;;;;;;;30.12;45.61;101512.66;5051056;28;20027;-73
2022/06/29 10:37:02;;;;;;;;;;;;;;;30.70;43.03;101507.16;5031085;28;20484;-73
2022/06/29 10:39:48;;;;;;;1.10;0.88;;;;;;;30.09;45.01;101502.28;5029445;28;20563;-73
2022/06/29 10:45:16;;;;;;;1.60;0.80;;;;;;;30.21;43.70;101502.09;5024220;28;20965;-73
2022/06/29 10:47:54;;;;;;;1.55;0.88;;;;;;;30.98;42.57;101502.31;5031632;28;20388;-73
2022/06/29 10:50:21;;;;;;;1.50;0.93;;;;;;;30.73;43.21;101501.19;5028182;28;20131;-73
2022/06/29 10:52:48;;;;;;;2.25;1.00;;;;;;;30.63;43.50;101494.91;5024970;28;20025;-73
2022/06/29 10:55:15;;;;;;;2.85;0.77;;;;;;;31.25;40.93;101493.06;5030623;28;20040;-74
2022/06/29 10:57:44;;;;;;;3.55;0.80;;;;;;;30.56;42.57;101495.16;5027181;28;20063;-74
2022/06/29 11:00:19;;;;;;;1.65;0.80;;;;;;;30.09;42.13;101491.41;5029629;28;20036;-72
2022/06/29 11:02:45;;;;;;;1.25;0.80;;;;;;;30.88;41.47;101491.41;5028755;28;20132;-72
2022/06/29 11:05:11;;;;;;;2.15;0.80;;;;;;;31.00;42.33;101488.44;5023475;28;20384;-72
2022/06/29 11:13:11;;;;;;;1.50;0.90;;;;;;;30.92;41.09;101479.72;5031608;28;20519;-73
2022/06/29 11:15:42;;;;;;;2.95;1.13;;;;;;;30.87;41.69;101476.97;5026530;28;20026;-73
2022/06/29 11:18:17;;;;;;;1.50;1.00;;;;;;;30.02;43.84;101479.13;5025610;28;20041;-73
2022/06/29 11:20:45;;;;;;;1.10;0.70;;;;;;;29.43;43.28;101475.50;5031209;28;20051;-73
2022/06/29 11:23:13;;;;;;;2.10;0.68;;;;;;;29.58;44.03;101473.97;5029666;28;20378;-73
2022/06/29 11:25:41;;;;;;;1.95;0.95;;;;;;;29.10;43.74;101461.13;5027730;28;20033;-72
2022/06/29 11:28:07;;;;;;;0.88;0.65;;;;;;;30.30;44.86;101459.66;5026302;28;20595;-73
2022/06/29 11:30:32;;;;;;;1.30;0.90;;;;;;;31.20;43.69;101468.53;5030855;28;20095;-73
2022/06/29 11:32:58;;;;;;;2.50;0.85;;;;;;;31.75;42.48;101469.56;5028102;28;20041;-73
2022/06/29 11:35:26;;;;;;;1.10;0.80;;;;;;;30.96;44.24;101471.78;5022895;28;20049;-72
2022/06/29 11:38:01;;;;;;;2.25;0.70;;;;;;;30.15;42.20;101459.59;5021404;28;20036;-73
2022/06/29 11:40:39;;;;;;;1.70;1.08;;;;;;;29.63;43.78;101461.22;5034871;28;20093;-72
2022/06/29 11:43:18;;;;;;;0.95;0.60;;;;;;;29.81;43.55;101446.41;5037617;28;20029;-71
2022/06/29 11:45:47;;;;;;;1.77;0.87;;;;;;;30.20;45.41;101461.50;5036033;28;20048;-71
2022/06/29 11:48:19;;;;;;;1.40;0.90;;;;;;;30.27;44.28;101449.28;5038719;28;20055;-71